Language selection

Features

My Weather Profile Weather Topics  | 

West Coast Haida Gwaii - northern half: Past 24 Hour Conditions

 

North Hecate Strait - 46183

07:00 PM PDT 19 August 2019Buoy position: 53.63N 131.1W
Disclaimer

This table is a summary of hourly weather conditions for the past 24 hours.
Please note that these observations might not always be representative of weather conditions over their associated marine area.

Date / Time
(PDT)
Wind(knots) Wave height(m) Wave period(s) Pressure(kPa) Air tempC) Water tempC)
19 August 2019
19:00 ESE 31 gust 37 2.8 6.0 100.7 12 18
18:00 SE 27 gust 31 2.1 5.0 100.9 13 18
17:00 ESE 23 gust 27 1.8 5.0 101.1 13 18
16:00 SE 22 gust 27 1.2 5.0 101.2 13 18
15:00 SSE 19 gust 25 1.1 4.0 101.2 13 18
14:00 SSE 17 gust 19 2.1 5.0 101.2 14 18
13:00 S 19 gust 22 2.3 5.0 101.2 15 18
12:00 SE 22 gust 23 2.4 4.0 101.2 15 18
11:00 SE 19 gust 23 2.0 4.0 101.3 14 18
10:00 SE 17 gust 22 2.8 3.0 101.3 14 18
9:00 SE 13 gust 16 0.9 3.0 101.3 13 18
8:00 SSE 10 gust 12 0.4 3.0 101.3 14 18
7:00 ESE 8 gust 10 0.3 8.0 101.2 14 18
6:00 E 2 gust 4 0.4 8.0 101.2 15 18
5:00 NNE 2 gust 4 0.4 8.0 101.2 14 18
4:00 NW 4 gust 4 0.5 3.0 101.2 14 18
3:00 WNW 4 gust 6 0.5 4.0 101.2 15 18
2:00 SSW 6 gust 10 0.6 4.0 101.2 14 18
1:00 SSW 6 gust 8 0.6 4.0 101.2 15 18
0:00 WSW 10 gust 13 0.6 4.0 101.1 15 18
18 August 2019
23:00 NW 8 gust 10 0.7 4.0 101.1 15 18
22:00 N 6 gust 8 0.7 4.0 101.1 15 18
21:00 N 8 gust 10 0.9 4.0 101.0 15 18
20:00 N 12 gust 16 1.2 4.0 100.9 15 18
19:00 N 16 gust 17 2.4 4.0 100.9 15 18

Zoom-in to make a selection

Map of Pacific - North Coast marine weather areas Middle Nomad - 46004 South Nomad - 46036 Dixon Entrance Central - 46145 South Moresby - 46147 Nanakwa Shoal - 46181 North Hecate Strait - 46183 North Nomad - 46184 South Hecate Strait - 46185 West Sea Otter - 46204 West Dixon Entrance - 46205 East Dellwood - 46207 West Moresby - 46208 Sartine Island Cape St.James Kindakun Rocks Langara Island Masset Municipal Airport Rose Spit Sandspit Airport Bella Bella Airport Bella Coola Airport Bonilla Island Cathedral Point Cumshewa Island Grey Islet Holland Rock Lucy Islands Lightstation Prince Rupert Airport
Legend:
buoy Buoy
land station Land Station

Pacific - North Coast Area

Another Region

What we are doing

Date modified: